createdAt,value
2023-05-10T00:01:28.818Z,3.17
2023-05-10T00:03:55.219Z,1.88
2023-05-10T00:06:21.918Z,1.70
2023-05-10T00:11:14.457Z,2.03
2023-05-10T00:13:41.116Z,1.73
2023-05-10T00:18:33.839Z,4.63
2023-05-10T00:21:00.356Z,2.55
2023-05-10T00:23:26.647Z,2.38
2023-05-10T00:25:52.969Z,1.92
2023-05-10T00:28:19.318Z,2.70
2023-05-10T00:30:45.641Z,2.10
2023-05-10T00:33:12.493Z,2.00
2023-05-10T00:35:39.140Z,2.33
2023-05-10T00:40:31.818Z,3.63
2023-05-10T00:42:59.153Z,2.50
2023-05-10T00:45:25.821Z,2.00
2023-05-10T00:47:55.914Z,3.08
2023-05-10T00:50:24.176Z,2.25
2023-05-10T00:52:51.177Z,3.55
2023-05-10T00:55:17.549Z,2.67
2023-05-10T00:57:44.211Z,5.70
2023-05-10T01:02:37.801Z,2.75
2023-05-10T01:05:04.709Z,3.33
2023-05-10T01:07:31.160Z,3.75
2023-05-10T01:09:58.440Z,3.05
2023-05-10T01:12:24.831Z,4.00
2023-05-10T01:14:51.199Z,5.13
2023-05-10T01:17:17.749Z,2.38
2023-05-10T01:19:44.071Z,4.25
2023-05-10T01:22:19.163Z,3.88
2023-05-10T01:25:16.450Z,4.72
2023-05-10T01:28:04.940Z,3.58
2023-05-10T01:30:37.230Z,2.50
2023-05-10T01:33:15.619Z,3.90
2023-05-10T01:36:16.795Z,2.53
2023-05-10T01:38:51.343Z,4.05
2023-05-10T01:41:20.947Z,2.67
2023-05-10T01:43:56.263Z,3.67
2023-05-10T01:46:34.202Z,3.00
2023-05-10T01:49:04.315Z,3.13
2023-05-10T01:51:39.968Z,4.63
2023-05-10T01:54:08.967Z,4.15
2023-05-10T01:56:36.581Z,4.88
2023-05-10T01:59:09.308Z,3.03
2023-05-10T02:01:37.650Z,4.00
2023-05-10T02:04:05.545Z,3.80
2023-05-10T02:06:33.963Z,4.53
2023-05-10T02:09:02.308Z,4.30
2023-05-10T02:11:30.012Z,4.80
2023-05-10T02:13:58.153Z,3.97
2023-05-10T02:16:27.322Z,4.35
2023-05-10T02:18:55.132Z,4.55
2023-05-10T02:21:22.536Z,4.53
2023-05-10T02:23:52.868Z,4.05
2023-05-10T02:26:23.047Z,4.20
2023-05-10T02:28:50.308Z,4.95
2023-05-10T02:31:17.822Z,5.05
2023-05-10T02:33:46.291Z,4.63
2023-05-10T02:36:13.683Z,4.90
2023-05-10T02:38:41.419Z,5.20
2023-05-10T02:41:10.135Z,4.40
2023-05-10T02:43:38.510Z,4.28
2023-05-10T02:46:04.996Z,5.35
2023-05-10T02:51:04.940Z,4.55
2023-05-10T02:53:34.032Z,4.82
2023-05-10T02:56:05.780Z,7.53
2023-05-10T02:58:32.275Z,4.95
2023-05-10T03:00:58.582Z,6.25
2023-05-10T03:03:24.926Z,5.70
2023-05-10T03:05:51.217Z,4.80
2023-05-10T03:08:17.570Z,4.90
2023-05-10T03:10:56.644Z,7.60
2023-05-10T03:13:45.050Z,6.53
2023-05-10T03:16:17.941Z,5.90
2023-05-10T03:19:07.154Z,5.55
2023-05-10T03:21:33.967Z,6.00
2023-05-10T03:24:09.869Z,5.18
2023-05-10T03:26:37.974Z,5.45
2023-05-10T03:29:06.351Z,8.23
2023-05-10T03:31:33.217Z,5.90
2023-05-10T03:33:59.505Z,7.75
2023-05-10T03:36:25.785Z,5.10
2023-05-10T03:38:52.112Z,6.72
2023-05-10T03:41:18.416Z,6.40
2023-05-10T03:43:44.730Z,4.72
2023-05-10T03:46:11.375Z,4.72
2023-05-10T03:51:04.148Z,5.90
2023-05-10T03:53:30.424Z,5.95
2023-05-10T03:55:56.749Z,5.40
2023-05-10T03:58:23.137Z,5.82
2023-05-10T04:00:49.468Z,5.88
2023-05-10T04:03:15.897Z,6.05
2023-05-10T04:05:42.239Z,6.07
2023-05-10T04:08:08.560Z,4.90
2023-05-10T04:10:34.894Z,5.63
2023-05-10T04:13:01.258Z,5.88
2023-05-10T04:15:27.584Z,5.95
2023-05-10T04:17:54.545Z,6.93
2023-05-10T04:20:21.004Z,7.40
2023-05-10T04:22:47.343Z,7.43
2023-05-10T04:25:13.682Z,6.72
2023-05-10T04:27:40.072Z,6.30
2023-05-10T04:30:07.628Z,7.10
2023-05-10T04:32:33.962Z,5.88
2023-05-10T04:35:00.236Z,7.20
2023-05-10T04:37:26.535Z,6.20
2023-05-10T04:39:52.906Z,5.82
2023-05-10T04:42:19.197Z,8.68
2023-05-10T04:44:45.521Z,8.55
2023-05-10T04:47:13.317Z,8.68
2023-05-10T04:49:39.588Z,7.70
2023-05-10T04:52:05.863Z,7.20
2023-05-10T04:54:32.239Z,7.32
2023-05-10T04:56:58.518Z,8.75
2023-05-10T04:59:24.842Z,7.50
2023-05-10T05:01:51.197Z,8.13
2023-05-10T05:04:17.725Z,7.68
2023-05-10T05:09:11.112Z,5.43
2023-05-10T05:11:37.460Z,7.32
2023-05-10T05:16:31.827Z,6.97
2023-05-10T05:18:58.206Z,7.00
2023-05-10T05:21:25.989Z,6.88
2023-05-10T05:23:52.258Z,7.13
2023-05-10T05:26:18.604Z,8.07
2023-05-10T05:28:44.928Z,10.75
2023-05-10T05:31:11.352Z,6.22
2023-05-10T05:33:38.140Z,5.75
2023-05-10T05:36:05.818Z,4.93
2023-05-10T05:38:32.372Z,5.85
2023-05-10T05:43:25.605Z,6.18
2023-05-10T05:45:54.557Z,5.40
2023-05-10T05:48:21.195Z,6.80
2023-05-10T05:53:13.830Z,6.43
2023-05-10T05:55:40.162Z,6.57
2023-05-10T05:58:06.632Z,10.02
2023-05-10T06:00:33.049Z,6.93
2023-05-10T06:02:59.452Z,5.45
2023-05-10T06:07:52.294Z,5.65
2023-05-10T06:10:21.344Z,5.70
2023-05-10T06:12:50.648Z,6.93
2023-05-10T06:15:18.974Z,7.57
2023-05-10T06:17:45.626Z,6.78
2023-05-10T06:20:15.808Z,6.95
2023-05-10T06:22:44.959Z,6.90
2023-05-10T06:25:12.214Z,5.78
2023-05-10T06:27:38.614Z,5.30
2023-05-10T06:30:12.769Z,7.18
2023-05-10T06:32:39.927Z,7.55
2023-05-10T06:35:06.845Z,6.47
2023-05-10T06:37:33.116Z,6.28
2023-05-10T06:39:59.420Z,11.48
2023-05-10T06:42:26.435Z,8.13
2023-05-10T06:44:52.859Z,5.88
2023-05-10T06:47:19.491Z,11.57
2023-05-10T06:49:45.912Z,7.25
2023-05-10T06:52:12.307Z,6.85
2023-05-10T06:54:38.789Z,6.43
2023-05-10T06:59:42.656Z,6.97
2023-05-10T07:02:09.061Z,9.77
2023-05-10T07:04:35.409Z,7.70
2023-05-10T07:07:01.748Z,7.00
2023-05-10T07:09:28.020Z,8.13
2023-05-10T07:11:54.406Z,8.52
2023-05-10T07:14:20.689Z,7.25
2023-05-10T07:16:47.087Z,8.00
2023-05-10T07:19:13.408Z,7.60
2023-05-10T07:21:41.339Z,9.35
2023-05-10T07:24:07.639Z,8.65
2023-05-10T07:26:34.029Z,9.25
2023-05-10T07:29:00.367Z,8.63
2023-05-10T07:31:26.695Z,7.47
2023-05-10T07:33:53.056Z,8.10
2023-05-10T07:36:19.378Z,9.50
2023-05-10T07:38:45.785Z,6.85
2023-05-10T07:41:12.917Z,7.28
2023-05-10T07:43:39.214Z,8.68
2023-05-10T07:46:06.203Z,7.80
2023-05-10T07:48:32.627Z,6.57
2023-05-10T07:50:58.948Z,6.10
2023-05-10T07:53:27.140Z,5.78
2023-05-10T07:55:59.767Z,9.18
2023-05-10T07:58:26.216Z,6.03
2023-05-10T08:03:18.881Z,4.80
2023-05-10T08:08:11.646Z,5.43
2023-05-10T08:10:38.092Z,5.07
2023-05-10T08:13:04.409Z,4.35
2023-05-10T08:15:30.704Z,5.00
2023-05-10T08:17:57.031Z,8.38
2023-05-10T08:20:23.444Z,4.85
2023-05-10T08:22:51.910Z,5.65
2023-05-10T08:25:18.696Z,4.97
2023-05-10T08:27:45.671Z,5.25
2023-05-10T08:30:12.981Z,4.47
2023-05-10T08:32:39.309Z,5.82
2023-05-10T08:35:06.169Z,5.10
2023-05-10T08:37:33.850Z,5.75
2023-05-10T08:40:00.236Z,5.85
2023-05-10T08:42:31.121Z,5.05
2023-05-10T08:44:58.619Z,6.07
2023-05-10T08:47:26.217Z,5.63
2023-05-10T08:49:53.483Z,6.43
2023-05-10T08:52:20.749Z,6.80
2023-05-10T08:54:47.632Z,7.45
2023-05-10T08:57:14.060Z,6.60
2023-05-10T08:59:40.792Z,5.10
2023-05-10T09:02:08.207Z,5.35
2023-05-10T09:04:34.660Z,8.77
2023-05-10T09:09:28.803Z,5.55
2023-05-10T09:11:55.476Z,6.32
2023-05-10T09:14:24.134Z,5.80
2023-05-10T09:16:50.508Z,5.45
2023-05-10T09:19:16.829Z,4.80
2023-05-10T09:21:43.170Z,5.10
2023-05-10T09:24:10.067Z,2.97
2023-05-10T09:26:46.279Z,3.20
2023-05-10T09:29:13.432Z,5.05
2023-05-10T09:31:47.265Z,4.65
2023-05-10T09:34:18.019Z,2.80
2023-05-10T09:36:58.513Z,3.83
2023-05-10T09:39:35.769Z,3.42
2023-05-10T09:42:11.438Z,4.13
2023-05-10T09:44:38.945Z,3.55
2023-05-10T09:47:05.531Z,4.50
2023-05-10T09:49:31.998Z,3.75
2023-05-10T09:54:29.006Z,3.53
2023-05-10T09:59:22.079Z,4.60
2023-05-10T10:01:52.225Z,3.10
2023-05-10T10:04:18.648Z,3.15
2023-05-10T10:06:45.569Z,3.33
2023-05-10T10:09:12.079Z,4.10
2023-05-10T10:14:06.374Z,3.78
2023-05-10T10:16:33.595Z,5.93
2023-05-10T10:19:00.075Z,3.55
2023-05-10T10:23:53.926Z,2.55
2023-05-10T10:26:21.908Z,2.95
2023-05-10T10:29:25.649Z,2.90
2023-05-10T10:32:02.451Z,2.58
2023-05-10T10:34:32.575Z,3.53
2023-05-10T10:37:05.553Z,3.10
2023-05-10T10:39:32.134Z,3.55
2023-05-10T10:41:59.617Z,5.13
2023-05-10T10:44:34.744Z,3.22
2023-05-10T10:47:12.642Z,4.68
2023-05-10T10:49:52.173Z,3.75
2023-05-10T10:52:24.764Z,4.80
2023-05-10T10:54:52.502Z,4.68
2023-05-10T10:57:20.690Z,3.17
2023-05-10T10:59:47.281Z,3.60
2023-05-10T11:02:54.875Z,6.97
2023-05-10T11:05:37.793Z,2.13
2023-05-10T11:08:28.715Z,4.63
2023-05-10T11:11:01.198Z,3.33
2023-05-10T11:13:43.470Z,6.03
2023-05-10T11:16:26.241Z,3.72
2023-05-10T11:19:08.625Z,2.47
2023-05-10T11:21:52.238Z,4.07
2023-05-10T11:24:21.312Z,4.47
2023-05-10T11:26:52.096Z,3.17
2023-05-10T11:29:18.558Z,2.83
2023-05-10T11:34:13.546Z,2.50
2023-05-10T11:36:39.905Z,2.78
2023-05-10T11:39:06.793Z,4.13
2023-05-10T11:41:33.413Z,4.80
2023-05-10T11:43:59.901Z,2.30
2023-05-10T11:46:29.409Z,8.65
2023-05-10T11:49:02.863Z,2.75
2023-05-10T11:51:29.359Z,2.38
2023-05-10T11:56:24.280Z,4.80
2023-05-10T11:58:56.686Z,3.05
2023-05-10T12:01:24.188Z,2.97
2023-05-10T12:03:52.485Z,2.75
2023-05-10T12:06:22.284Z,3.00
2023-05-10T12:08:53.330Z,2.45
2023-05-10T12:11:20.233Z,2.15
2023-05-10T12:13:50.791Z,3.75
2023-05-10T12:16:21.981Z,3.35
2023-05-10T12:18:56.674Z,2.28
2023-05-10T12:21:23.468Z,3.47
2023-05-10T12:23:53.535Z,3.50
2023-05-10T12:26:23.838Z,2.35
2023-05-10T12:28:50.387Z,4.10
2023-05-10T12:31:16.794Z,2.67
2023-05-10T12:33:44.587Z,2.53
2023-05-10T12:36:12.835Z,2.95
2023-05-10T12:38:43.087Z,3.05
2023-05-10T12:41:11.809Z,3.58
2023-05-10T12:43:38.725Z,2.15
2023-05-10T12:46:06.675Z,1.95
2023-05-10T12:48:34.814Z,1.83
2023-05-10T12:51:02.407Z,1.80
2023-05-10T12:53:28.760Z,5.40
2023-05-10T12:55:55.320Z,1.80
2023-05-10T13:00:54.530Z,3.70
2023-05-10T13:03:20.925Z,2.80
2023-05-10T13:05:47.251Z,1.65
2023-05-10T13:10:39.962Z,2.00
2023-05-10T13:13:06.291Z,2.92
2023-05-10T13:17:58.917Z,3.08
2023-05-10T13:20:26.385Z,2.47
2023-05-10T13:22:52.690Z,3.45
2023-05-10T13:27:45.400Z,3.88
2023-05-10T13:30:14.726Z,5.43
2023-05-10T13:32:41.141Z,3.33
2023-05-10T13:37:36.437Z,3.80
2023-05-10T13:40:02.873Z,4.13
2023-05-10T13:42:29.362Z,2.97
2023-05-10T13:44:55.712Z,4.43
2023-05-10T13:49:49.673Z,3.88
2023-05-10T13:52:16.040Z,3.53
2023-05-10T13:57:08.846Z,4.38
2023-05-10T14:02:04.780Z,3.28
2023-05-10T14:04:31.364Z,2.60
2023-05-10T14:06:57.692Z,3.35
2023-05-10T14:11:50.266Z,3.70
2023-05-10T14:14:16.576Z,5.13
2023-05-10T14:16:44.703Z,4.65
2023-05-10T14:19:12.087Z,3.10
2023-05-10T14:21:38.988Z,3.55
2023-05-10T14:24:05.819Z,2.60
2023-05-10T14:26:32.325Z,2.35
2023-05-10T14:28:58.672Z,3.13
2023-05-10T14:33:52.828Z,3.55
2023-05-10T14:36:19.289Z,4.22
2023-05-10T14:38:45.711Z,3.72
2023-05-10T14:43:42.218Z,5.13
2023-05-10T14:46:09.578Z,3.60
2023-05-10T14:48:36.233Z,8.60
2023-05-10T14:51:02.818Z,5.05
2023-05-10T14:53:29.095Z,4.18
2023-05-10T14:55:55.710Z,3.58
2023-05-10T14:58:22.433Z,10.18
2023-05-10T15:00:48.973Z,3.90
2023-05-10T15:03:16.479Z,3.78
2023-05-10T15:05:43.518Z,4.07
2023-05-10T15:08:10.247Z,3.05
2023-05-10T15:10:37.657Z,5.95
2023-05-10T15:13:05.241Z,4.32
2023-05-10T15:15:32.099Z,3.40
2023-05-10T15:17:58.509Z,2.47
2023-05-10T15:20:24.920Z,3.15
2023-05-10T15:22:51.706Z,3.13
2023-05-10T15:25:18.306Z,3.83
2023-05-10T15:27:44.772Z,2.40
2023-05-10T15:32:38.250Z,2.30
2023-05-10T15:35:04.991Z,3.63
2023-05-10T15:37:31.308Z,5.13
2023-05-10T15:42:31.538Z,2.83
2023-05-10T15:44:58.080Z,4.45
2023-05-10T15:47:24.799Z,2.78
2023-05-10T15:49:51.064Z,2.30
2023-05-10T15:52:18.652Z,4.05
2023-05-10T15:54:44.942Z,2.35
2023-05-10T15:59:38.084Z,2.75
2023-05-10T16:04:30.836Z,2.30
2023-05-10T16:09:23.420Z,3.22
2023-05-10T16:11:49.788Z,2.65
2023-05-10T16:16:43.412Z,2.17
2023-05-10T16:19:09.823Z,2.97
2023-05-10T16:24:03.231Z,4.05
2023-05-10T16:26:29.561Z,2.55
2023-05-10T16:31:22.465Z,3.17
2023-05-10T16:33:49.887Z,3.13
2023-05-10T16:36:16.184Z,2.95
2023-05-10T16:38:42.515Z,2.80
2023-05-10T16:43:35.726Z,2.28
2023-05-10T16:46:02.384Z,2.47
2023-05-10T16:48:28.734Z,3.90
2023-05-10T16:53:21.520Z,2.83
2023-05-10T16:55:47.927Z,2.47
2023-05-10T17:00:40.733Z,2.72
2023-05-10T17:03:07.687Z,4.38
2023-05-10T17:05:34.060Z,3.58
2023-05-10T17:08:00.829Z,2.95
2023-05-10T17:10:27.200Z,3.88
2023-05-10T17:15:20.641Z,1.98
2023-05-10T17:17:47.723Z,3.67
2023-05-10T17:20:14.067Z,1.80
2023-05-10T17:22:40.430Z,2.72
2023-05-10T17:27:33.543Z,2.58
2023-05-10T17:32:26.344Z,1.77
2023-05-10T17:34:52.854Z,2.55
2023-05-10T17:39:45.612Z,2.35
2023-05-10T17:42:12.629Z,2.90
2023-05-10T17:44:38.987Z,3.42
2023-05-10T17:47:06.267Z,2.53
2023-05-10T17:49:32.634Z,2.83
2023-05-10T17:51:58.921Z,3.33
2023-05-10T17:54:25.251Z,3.15
2023-05-10T17:56:51.631Z,3.45
2023-05-10T17:59:18.102Z,4.05
2023-05-10T18:04:10.949Z,2.75
2023-05-10T18:09:07.074Z,2.00
2023-05-10T18:11:34.952Z,2.65
2023-05-10T18:14:01.272Z,3.28
2023-05-10T18:16:27.605Z,2.00
2023-05-10T18:18:53.969Z,2.38
2023-05-10T18:23:46.901Z,3.75
2023-05-10T18:26:13.471Z,2.45
2023-05-10T18:28:39.778Z,1.70
2023-05-10T18:31:06.097Z,2.60
2023-05-10T18:33:32.431Z,3.22
2023-05-10T18:35:58.757Z,3.15
2023-05-10T18:38:25.310Z,4.30
2023-05-10T18:40:51.628Z,2.83
2023-05-10T18:43:18.120Z,4.25
2023-05-10T18:48:10.743Z,3.30
2023-05-10T18:50:37.131Z,2.30
2023-05-10T18:53:03.458Z,3.10
2023-05-10T18:55:29.849Z,3.53
2023-05-10T18:57:56.189Z,4.45
2023-05-10T19:00:22.604Z,3.20
2023-05-10T19:05:15.986Z,3.35
2023-05-10T19:07:43.854Z,4.50
2023-05-10T19:10:12.683Z,4.45
2023-05-10T19:12:41.175Z,2.88
2023-05-10T19:15:08.332Z,2.67
2023-05-10T19:17:36.752Z,3.72
2023-05-10T19:20:04.540Z,4.72
2023-05-10T19:25:00.283Z,4.35
2023-05-10T19:27:26.650Z,3.72
2023-05-10T19:29:52.970Z,3.65
2023-05-10T19:32:19.295Z,4.20
2023-05-10T19:34:45.613Z,4.68
2023-05-10T19:37:12.065Z,4.22
2023-05-10T19:39:38.353Z,4.72
2023-05-10T19:42:05.376Z,6.72
2023-05-10T19:44:31.828Z,3.55
2023-05-10T19:46:58.860Z,6.30
2023-05-10T19:49:25.304Z,5.03
2023-05-10T19:51:51.603Z,4.07
2023-05-10T19:54:17.937Z,5.32
2023-05-10T19:56:44.233Z,6.38
2023-05-10T19:59:10.631Z,5.15
2023-05-10T20:01:37.201Z,6.20
2023-05-10T20:04:03.692Z,5.32
2023-05-10T20:06:30.074Z,8.55
2023-05-10T20:08:56.360Z,6.32
2023-05-10T20:11:22.690Z,4.25
2023-05-10T20:13:49.013Z,4.90
2023-05-10T20:16:15.313Z,5.97
2023-05-10T20:18:41.828Z,5.05
2023-05-10T20:21:08.167Z,2.55
2023-05-10T20:23:34.459Z,2.25
2023-05-10T20:26:00.763Z,4.10
2023-05-10T20:28:28.216Z,5.65
2023-05-10T20:30:55.691Z,3.50
2023-05-10T20:33:22.628Z,2.78
2023-05-10T20:35:50.139Z,3.13
2023-05-10T20:38:17.984Z,3.75
2023-05-10T20:40:44.724Z,4.10
2023-05-10T20:43:10.992Z,5.45
2023-05-10T20:45:37.861Z,2.95
2023-05-10T20:48:04.852Z,3.58
2023-05-10T20:50:31.233Z,2.75
2023-05-10T20:52:57.598Z,6.05
2023-05-10T20:55:23.874Z,4.10
2023-05-10T20:57:51.371Z,7.10
2023-05-10T21:00:18.176Z,3.95
2023-05-10T21:02:45.916Z,3.92
2023-05-10T21:05:12.372Z,3.17
2023-05-10T21:07:39.372Z,5.18
2023-05-10T21:10:10.342Z,5.15
2023-05-10T21:12:37.110Z,3.83
2023-05-10T21:15:04.085Z,4.35
2023-05-10T21:17:30.837Z,3.92
2023-05-10T21:19:57.310Z,3.42
2023-05-10T21:22:23.650Z,3.60
2023-05-10T21:24:49.993Z,3.28
2023-05-10T21:27:16.502Z,6.13
2023-05-10T21:29:42.841Z,5.13
2023-05-10T21:32:09.523Z,2.40
2023-05-10T21:34:36.027Z,3.80
2023-05-10T21:37:02.359Z,5.55
2023-05-10T21:39:28.645Z,2.55
2023-05-10T21:41:54.957Z,2.58
2023-05-10T21:44:21.268Z,2.90
2023-05-10T21:46:47.708Z,2.83
2023-05-10T21:49:14.034Z,2.55
2023-05-10T21:51:40.327Z,2.38
2023-05-10T21:54:06.760Z,2.53
2023-05-10T21:56:33.042Z,3.45
2023-05-10T21:58:59.329Z,5.20
2023-05-10T22:01:27.224Z,2.17
2023-05-10T22:03:53.555Z,2.22
2023-05-10T22:06:19.899Z,3.42
2023-05-10T22:08:46.180Z,2.17
2023-05-10T22:11:12.510Z,4.28
2023-05-10T22:13:38.809Z,4.25
2023-05-10T22:16:05.166Z,3.55
2023-05-10T22:18:31.451Z,3.33
2023-05-10T22:20:57.789Z,2.30
2023-05-10T22:23:24.157Z,2.92
2023-05-10T22:25:50.454Z,3.83
2023-05-10T22:28:16.746Z,2.28
2023-05-10T22:30:43.460Z,2.67
2023-05-10T22:33:09.880Z,2.58
2023-05-10T22:35:36.220Z,2.80
2023-05-10T22:38:02.515Z,3.03
2023-05-10T22:40:28.819Z,2.25
2023-05-10T22:42:55.297Z,2.53
2023-05-10T22:45:21.604Z,2.95
2023-05-10T22:47:48.118Z,3.13
2023-05-10T22:52:40.830Z,3.58
2023-05-10T22:55:07.515Z,2.50
2023-05-10T22:57:34.240Z,2.13
2023-05-10T23:00:00.759Z,2.95
2023-05-10T23:02:27.169Z,3.65
2023-05-10T23:04:53.564Z,2.25
2023-05-10T23:07:19.895Z,2.88
2023-05-10T23:09:46.183Z,2.63
2023-05-10T23:12:12.499Z,2.28
2023-05-10T23:14:38.776Z,2.35
2023-05-10T23:17:05.357Z,2.22
2023-05-10T23:21:59.250Z,2.53
2023-05-10T23:24:26.197Z,1.83
2023-05-10T23:26:52.476Z,2.72
2023-05-10T23:29:18.881Z,2.92
2023-05-10T23:31:48.958Z,2.20
2023-05-10T23:34:15.305Z,2.47
2023-05-10T23:36:41.579Z,3.40
2023-05-10T23:39:08.179Z,2.35
2023-05-10T23:41:34.596Z,2.38
2023-05-10T23:44:09.803Z,2.50
2023-05-10T23:46:36.079Z,2.10
2023-05-10T23:49:02.397Z,3.00
2023-05-10T23:51:28.661Z,2.65
2023-05-10T23:53:55.017Z,3.00
2023-05-10T23:56:22.019Z,2.70
2023-05-10T23:58:48.407Z,3.38
